Aérodrome :
LOGIN :

S'inscrire | Disclaimer

   EN    FR    IT 

 










Légende :    VFR   VFR Marginal   IFR   IFR Intensif   IFR Très Intensif
Visi : 
Plafond : 
>= 8 km
>= 3000ft
5 à 8 km
1000 à 3000 ft
1500m à 5 km
500 à 1000 ft
800 à 1500m
200 à 500 ft
< 800m
< 200 ft
Symboles :   Orages  Brouillard  Fortes neiges  Fortes précipitations  Vent > 20 kt
SIGMETs :   Divers  Orages  Givrage  Turbulence  Onde Orograph.  Cendres Volcan.






- Altitude de l'aérodrome : 162 ft
- Code IATA : BOD


LFBD - Bordeaux / Merignac

DERNIER METAR :
  • 161030Z AUTO 13010KT CAVOK 11/10 Q1002 NOSIG

METARs EXPIRÉS :
  • 161000Z AUTO 14011KT CAVOK 11/10 Q1002 NOSIG
  • 160930Z AUTO 14009KT CAVOK 11/10 Q1003 NOSIG
  • 160900Z AUTO 14009KT CAVOK 11/10 Q1003 NOSIG
  • 160830Z AUTO 14011KT CAVOK 10/09 Q1002 NOSIG
  • 160800Z AUTO 14008KT CAVOK 10/09 Q1003 NOSIG

TAF TAF LFBD
Valide du 16 à 06h jusqu'au 17 à 12h UTC


160500Z 1606/1712 14010KT CAVOK TX16/1614Z TN09/1607Z
TEMPO 1618/1703 15010G20KT
PROB40 1703/1708 4000 BR OVC008
ATIS : +33 5 57 92 81 04



MET'MAP, la Météo Aéronautique d'un coup d'oeil ! - Copyright ORBIFLY Décembre 2007 - Disclaimer

ORBIFLY MET'MAP TEAM :

Programmation & Développement : Alexandra Zaïnal
Sur une idée originale de : Baudouin d'Aumeries
Assistance à la programmation : Marc-Olivier Méhu
Soutien technique & logistique : Manuel Goepfert

Contact : metmap@orbifly.com




SOURCES & CREDITS :

   NOAA